createdAt,value
2019-02-20T00:01:25.302Z,2.90
2019-02-20T00:03:53.889Z,2.90
2019-02-20T00:06:22.442Z,2.90
2019-02-20T00:08:51.132Z,2.90
2019-02-20T00:11:20.044Z,2.90
2019-02-20T00:13:48.705Z,2.90
2019-02-20T00:16:17.390Z,2.90
2019-02-20T00:18:46.106Z,2.90
2019-02-20T00:21:14.571Z,3.00
2019-02-20T00:23:43.237Z,3.00
2019-02-20T00:26:11.742Z,3.00
2019-02-20T00:28:40.096Z,3.10
2019-02-20T00:31:08.675Z,3.10
2019-02-20T00:33:37.401Z,3.10
2019-02-20T00:36:05.948Z,3.10
2019-02-20T00:38:34.527Z,3.20
2019-02-20T00:41:03.630Z,3.20
2019-02-20T00:43:32.010Z,3.20
2019-02-20T00:46:14.647Z,3.20
2019-02-20T00:49:02.649Z,3.30
2019-02-20T00:51:42.534Z,3.30
2019-02-20T00:54:10.780Z,3.30
2019-02-20T00:56:39.562Z,3.30
2019-02-20T00:59:09.937Z,3.30
2019-02-20T01:01:41.301Z,3.40
2019-02-20T01:04:10.775Z,3.40
2019-02-20T01:06:39.409Z,3.40
2019-02-20T01:09:08.472Z,3.40
2019-02-20T01:11:36.953Z,3.40
2019-02-20T01:14:05.410Z,3.40
2019-02-20T01:16:34.169Z,3.40
2019-02-20T01:19:02.892Z,3.50
2019-02-20T01:21:31.546Z,3.50
2019-02-20T01:24:00.238Z,3.50
2019-02-20T01:26:28.745Z,3.50
2019-02-20T01:28:57.398Z,3.50
2019-02-20T01:31:25.779Z,3.50
2019-02-20T01:33:54.397Z,3.50
2019-02-20T01:36:23.244Z,3.50
2019-02-20T01:38:51.729Z,3.50
2019-02-20T01:41:20.450Z,3.60
2019-02-20T01:43:49.091Z,3.60
2019-02-20T01:46:17.988Z,3.60
2019-02-20T01:48:46.709Z,3.60
2019-02-20T01:51:15.362Z,3.60
2019-02-20T01:53:45.313Z,3.60
2019-02-20T01:56:15.008Z,3.60
2019-02-20T01:58:43.463Z,3.60
2019-02-20T02:01:12.136Z,3.60
2019-02-20T02:03:40.874Z,3.60
2019-02-20T02:06:09.536Z,3.60
2019-02-20T02:08:37.902Z,3.60
2019-02-20T02:11:06.324Z,3.60
2019-02-20T02:13:34.949Z,3.60
2019-02-20T02:16:03.329Z,3.60
2019-02-20T02:18:31.861Z,3.60
2019-02-20T02:21:00.701Z,3.60
2019-02-20T02:23:29.473Z,3.60
2019-02-20T02:25:58.203Z,3.60
2019-02-20T02:28:26.864Z,3.70
2019-02-20T02:30:56.802Z,3.70
2019-02-20T02:33:25.492Z,3.70
2019-02-20T02:36:00.296Z,3.70
2019-02-20T02:38:29.015Z,3.70
2019-02-20T02:40:57.480Z,3.80
2019-02-20T02:43:26.139Z,3.80
2019-02-20T02:45:55.907Z,3.80
2019-02-20T02:48:24.321Z,3.80
2019-02-20T02:50:53.829Z,3.80
2019-02-20T02:53:30.255Z,3.80
2019-02-20T02:55:53.251Z,3.90
2019-02-20T02:58:21.975Z,3.90
2019-02-20T03:00:50.922Z,3.90
2019-02-20T03:03:19.504Z,3.90
2019-02-20T03:05:48.234Z,3.90
2019-02-20T03:08:16.882Z,4.00
2019-02-20T03:10:45.566Z,4.00
2019-02-20T03:13:14.315Z,4.00
2019-02-20T03:15:42.946Z,3.90
2019-02-20T03:18:11.346Z,3.90
2019-02-20T03:20:39.848Z,3.90
2019-02-20T03:23:08.589Z,4.00
2019-02-20T03:25:37.283Z,4.00
2019-02-20T03:28:06.010Z,4.00
2019-02-20T03:30:34.445Z,4.00
2019-02-20T03:33:03.129Z,4.00
2019-02-20T03:35:31.857Z,4.00
2019-02-20T03:38:01.941Z,4.00
2019-02-20T03:40:30.604Z,4.00
2019-02-20T03:42:59.362Z,4.00
2019-02-20T03:45:28.000Z,4.00
2019-02-20T03:47:56.494Z,4.00
2019-02-20T03:50:25.592Z,4.00
2019-02-20T03:52:53.941Z,4.00
2019-02-20T03:55:22.732Z,4.00
2019-02-20T03:57:51.445Z,4.10
2019-02-20T04:00:20.109Z,4.10
2019-02-20T04:02:49.054Z,4.10
2019-02-20T04:05:17.415Z,4.10
2019-02-20T04:07:46.153Z,4.10
2019-02-20T04:10:14.838Z,4.10
2019-02-20T04:12:43.568Z,4.10
2019-02-20T04:15:11.774Z,4.10
2019-02-20T04:17:40.282Z,4.10
2019-02-20T04:20:08.893Z,4.10
2019-02-20T04:22:37.653Z,4.10
2019-02-20T04:25:06.336Z,4.20
2019-02-20T04:27:35.330Z,4.20
2019-02-20T04:30:03.921Z,4.20
2019-02-20T04:32:32.301Z,4.20
2019-02-20T04:35:01.128Z,4.20
2019-02-20T04:37:29.774Z,4.20
2019-02-20T04:39:58.452Z,4.20
2019-02-20T04:42:27.176Z,4.20
2019-02-20T04:44:55.622Z,4.20
2019-02-20T04:47:24.310Z,4.20
2019-02-20T04:49:53.028Z,4.20
2019-02-20T04:52:21.491Z,4.30
2019-02-20T04:54:50.160Z,4.30
2019-02-20T04:57:18.877Z,4.20
2019-02-20T04:59:47.534Z,4.30
2019-02-20T05:02:15.785Z,4.30
2019-02-20T05:04:44.305Z,4.30
2019-02-20T05:07:13.264Z,4.30
2019-02-20T05:09:42.866Z,4.40
2019-02-20T05:12:13.460Z,4.40
2019-02-20T05:14:43.119Z,4.40
2019-02-20T05:17:11.789Z,4.40
2019-02-20T05:19:40.316Z,4.40
2019-02-20T05:22:09.328Z,4.30
2019-02-20T05:24:37.594Z,4.40
2019-02-20T05:27:06.404Z,4.40
2019-02-20T05:29:35.019Z,4.40
2019-02-20T05:32:03.723Z,4.40
2019-02-20T05:34:32.447Z,4.40
2019-02-20T05:37:02.107Z,4.40
2019-02-20T05:39:30.586Z,4.40
2019-02-20T05:41:59.298Z,4.40
2019-02-20T05:44:28.281Z,4.30
2019-02-20T05:46:56.840Z,4.30
2019-02-20T05:49:25.277Z,4.30
2019-02-20T05:51:53.386Z,4.30
2019-02-20T05:54:22.096Z,4.30
2019-02-20T05:56:50.590Z,4.30
2019-02-20T05:59:19.260Z,4.30
2019-02-20T06:01:47.964Z,4.30
2019-02-20T06:04:16.455Z,4.30
2019-02-20T06:06:45.158Z,4.30
2019-02-20T06:09:13.379Z,4.40
2019-02-20T06:11:42.002Z,4.40
2019-02-20T06:14:10.541Z,4.40
2019-02-20T06:16:39.226Z,4.40
2019-02-20T06:19:08.758Z,4.40
2019-02-20T06:21:37.421Z,4.40
2019-02-20T06:24:06.836Z,4.40
2019-02-20T06:26:35.853Z,4.50
2019-02-20T06:29:04.298Z,4.40
2019-02-20T06:31:32.978Z,4.50
2019-02-20T06:34:01.698Z,4.50
2019-02-20T06:36:31.376Z,4.50
2019-02-20T06:39:00.063Z,4.50
2019-02-20T06:41:38.333Z,4.50
2019-02-20T06:43:58.880Z,4.50
2019-02-20T06:46:28.383Z,4.50
2019-02-20T06:48:56.817Z,4.50
2019-02-20T06:51:25.250Z,4.50
2019-02-20T06:53:54.038Z,4.50
2019-02-20T06:56:23.467Z,4.60
2019-02-20T06:58:52.220Z,4.60
2019-02-20T07:01:21.108Z,4.60
2019-02-20T07:03:49.636Z,4.60
2019-02-20T07:06:43.474Z,4.60
2019-02-20T07:09:52.132Z,4.60
2019-02-20T07:13:02.149Z,4.60
2019-02-20T07:15:58.320Z,4.60
2019-02-20T07:19:03.202Z,4.60
2019-02-20T07:22:20.890Z,4.60
2019-02-20T07:25:03.359Z,4.60
2019-02-20T07:28:26.661Z,4.60
2019-02-20T07:30:55.120Z,4.60
2019-02-20T07:33:23.603Z,4.60
2019-02-20T07:35:51.907Z,4.60
2019-02-20T07:38:20.443Z,4.70
2019-02-20T07:40:49.026Z,4.60
2019-02-20T07:43:17.774Z,4.70
2019-02-20T07:45:46.597Z,4.70
2019-02-20T07:48:15.282Z,4.70
2019-02-20T07:50:43.811Z,4.70
2019-02-20T07:53:12.261Z,4.70
2019-02-20T07:55:40.937Z,4.70
2019-02-20T07:58:09.654Z,4.70
2019-02-20T08:00:38.307Z,4.70
2019-02-20T08:03:06.690Z,4.70
2019-02-20T08:05:35.507Z,4.70
2019-02-20T08:08:03.850Z,4.80
2019-02-20T08:10:32.647Z,4.80
2019-02-20T08:13:01.283Z,4.80
2019-02-20T08:15:30.859Z,4.80
2019-02-20T08:17:59.331Z,4.80
2019-02-20T08:20:28.036Z,4.80
2019-02-20T08:22:56.616Z,4.90
2019-02-20T08:25:25.484Z,4.90
2019-02-20T08:27:54.104Z,4.90
2019-02-20T08:30:22.766Z,5.00
2019-02-20T08:32:51.225Z,5.00
2019-02-20T08:35:19.936Z,5.00
2019-02-20T08:37:48.391Z,5.10
2019-02-20T08:40:17.287Z,5.10
2019-02-20T08:42:46.010Z,5.10
2019-02-20T08:45:14.858Z,5.20
2019-02-20T08:47:44.363Z,5.30
2019-02-20T08:50:12.867Z,5.40
2019-02-20T08:52:41.328Z,5.40
2019-02-20T08:55:09.728Z,5.50
2019-02-20T08:57:38.207Z,5.70
2019-02-20T09:00:09.323Z,6.00
2019-02-20T09:02:39.333Z,6.30
2019-02-20T09:05:07.867Z,6.90
2019-02-20T09:07:37.015Z,7.10
2019-02-20T09:10:06.173Z,7.20
2019-02-20T09:12:42.297Z,7.60
2019-02-20T09:15:10.992Z,8.00
2019-02-20T09:17:40.759Z,8.00
2019-02-20T09:20:09.571Z,7.80
2019-02-20T09:22:39.615Z,7.60
2019-02-20T09:25:09.120Z,7.50
2019-02-20T09:27:37.890Z,7.40
2019-02-20T09:30:10.123Z,7.30
2019-02-20T09:32:38.613Z,7.30
2019-02-20T09:35:08.216Z,7.20
2019-02-20T09:37:38.143Z,7.20
2019-02-20T09:40:09.278Z,7.30
2019-02-20T09:42:39.359Z,7.30
2019-02-20T09:45:08.105Z,7.50
2019-02-20T09:47:37.037Z,7.70
2019-02-20T09:50:06.032Z,7.60
2019-02-20T09:52:37.139Z,7.80
2019-02-20T09:55:05.953Z,7.90
2019-02-20T09:57:34.722Z,8.10
2019-02-20T10:00:05.875Z,8.40
2019-02-20T10:02:35.018Z,8.50
2019-02-20T10:05:03.555Z,8.50
2019-02-20T10:07:33.159Z,8.60
2019-02-20T10:10:04.449Z,8.90
2019-02-20T10:12:33.253Z,9.10
2019-02-20T10:15:02.846Z,9.30
2019-02-20T10:17:33.198Z,9.20
2019-02-20T10:20:04.563Z,9.40
2019-02-20T10:22:33.580Z,9.50
2019-02-20T10:25:02.422Z,9.70
2019-02-20T10:27:31.496Z,10.00
2019-02-20T10:30:02.047Z,10.20
2019-02-20T10:32:31.435Z,10.30
2019-02-20T10:35:01.054Z,10.60
2019-02-20T10:37:31.560Z,10.60
2019-02-20T10:40:00.342Z,10.80
2019-02-20T10:42:29.251Z,10.60
2019-02-20T10:44:57.881Z,10.50
2019-02-20T10:47:26.306Z,10.50
2019-02-20T10:49:54.949Z,10.60
2019-02-20T10:52:24.417Z,10.60
2019-02-20T10:54:57.689Z,10.60
2019-02-20T10:57:25.146Z,10.80
2019-02-20T10:59:54.862Z,10.80
2019-02-20T11:02:23.814Z,11.00
2019-02-20T11:04:52.593Z,11.10
2019-02-20T11:07:21.762Z,11.30
2019-02-20T11:09:50.477Z,11.60
2019-02-20T11:12:20.630Z,11.80
2019-02-20T11:14:49.464Z,11.80
2019-02-20T11:17:18.151Z,11.80
2019-02-20T11:19:46.515Z,11.80
2019-02-20T11:22:15.078Z,12.00
2019-02-20T11:24:44.654Z,12.20
2019-02-20T11:27:13.824Z,12.20
2019-02-20T11:29:42.556Z,12.30
2019-02-20T11:32:11.284Z,12.20
2019-02-20T11:34:39.948Z,12.20
2019-02-20T11:37:15.218Z,12.60
2019-02-20T11:39:43.779Z,12.50
2019-02-20T11:42:12.957Z,12.60
2019-02-20T11:44:42.082Z,13.00
2019-02-20T11:47:10.427Z,13.30
2019-02-20T11:49:39.374Z,13.60
2019-02-20T11:52:09.275Z,13.80
2019-02-20T11:54:38.719Z,14.00
2019-02-20T11:57:07.233Z,14.00
2019-02-20T11:59:37.080Z,14.20
2019-02-20T12:02:06.547Z,14.50
2019-02-20T12:04:34.948Z,14.70
2019-02-20T12:07:03.980Z,14.90
2019-02-20T12:09:35.621Z,15.10
2019-02-20T12:12:04.139Z,15.20
2019-02-20T12:14:38.990Z,15.30
2019-02-20T12:17:07.755Z,15.30
2019-02-20T12:19:37.276Z,15.40
2019-02-20T12:22:06.086Z,15.40
2019-02-20T12:24:34.639Z,15.60
2019-02-20T12:27:03.118Z,15.60
2019-02-20T12:29:31.932Z,15.90
2019-02-20T12:32:01.346Z,16.00
2019-02-20T12:34:30.179Z,16.10
2019-02-20T12:36:58.999Z,16.10
2019-02-20T12:39:27.825Z,16.10
2019-02-20T12:41:56.371Z,16.10
2019-02-20T12:44:25.093Z,16.20
2019-02-20T12:46:53.430Z,16.20
2019-02-20T12:49:22.207Z,16.20
2019-02-20T12:51:50.947Z,16.20
2019-02-20T12:54:19.521Z,16.10
2019-02-20T12:56:48.267Z,16.10
2019-02-20T12:59:18.014Z,15.90
2019-02-20T13:01:49.553Z,15.90
2019-02-20T13:04:17.856Z,15.80
2019-02-20T13:06:46.799Z,15.80
2019-02-20T13:09:21.882Z,15.80
2019-02-20T13:11:51.162Z,15.80
2019-02-20T13:14:21.287Z,15.80
2019-02-20T13:16:49.821Z,15.70
2019-02-20T13:19:18.927Z,15.60
2019-02-20T13:21:48.536Z,15.40
2019-02-20T13:24:17.035Z,15.40
2019-02-20T13:26:52.919Z,15.30
2019-02-20T13:29:17.590Z,15.20
2019-02-20T13:31:46.677Z,15.30
2019-02-20T13:34:15.996Z,15.30
2019-02-20T13:36:44.499Z,15.40
2019-02-20T13:39:13.129Z,15.30
2019-02-20T13:41:41.798Z,15.20
2019-02-20T13:44:10.829Z,15.20
2019-02-20T13:46:41.230Z,15.30
2019-02-20T13:49:09.905Z,15.30
2019-02-20T13:51:38.438Z,15.30
2019-02-20T13:54:07.096Z,15.20
2019-02-20T13:56:35.476Z,15.10
2019-02-20T13:59:04.291Z,15.10
2019-02-20T14:01:33.200Z,15.00
2019-02-20T14:04:01.736Z,15.10
2019-02-20T14:06:30.741Z,15.10
2019-02-20T14:08:59.387Z,15.00
2019-02-20T14:11:28.079Z,14.90
2019-02-20T14:13:57.806Z,14.80
2019-02-20T14:16:26.474Z,14.70
2019-02-20T14:18:55.157Z,14.70
2019-02-20T14:21:23.896Z,14.70
2019-02-20T14:23:52.725Z,14.70
2019-02-20T14:26:21.934Z,14.60
2019-02-20T14:28:50.542Z,14.60
2019-02-20T14:31:19.205Z,14.60
2019-02-20T14:33:47.888Z,14.50
2019-02-20T14:36:16.392Z,14.50
2019-02-20T14:38:46.072Z,14.40
2019-02-20T14:41:14.557Z,14.40
2019-02-20T14:43:43.070Z,14.30
2019-02-20T14:46:12.381Z,14.30
2019-02-20T14:48:41.041Z,14.10
2019-02-20T14:51:09.756Z,14.10
2019-02-20T14:53:38.295Z,13.90
2019-02-20T14:56:07.507Z,13.90
2019-02-20T14:58:36.586Z,14.00
2019-02-20T15:01:06.134Z,14.00
2019-02-20T15:03:35.097Z,14.00
2019-02-20T15:06:03.493Z,13.90
2019-02-20T15:08:33.883Z,13.80
2019-02-20T15:11:02.843Z,13.80
2019-02-20T15:13:31.398Z,13.70
2019-02-20T15:16:00.050Z,13.70
2019-02-20T15:18:28.734Z,13.70
2019-02-20T15:20:57.452Z,13.70
2019-02-20T15:23:25.801Z,13.60
2019-02-20T15:25:54.594Z,13.60
2019-02-20T15:28:23.202Z,13.60
2019-02-20T15:30:51.975Z,13.60
2019-02-20T15:33:20.647Z,13.50
2019-02-20T15:35:49.074Z,13.50
2019-02-20T15:38:17.386Z,13.50
2019-02-20T15:40:46.807Z,13.50
2019-02-20T15:43:15.426Z,13.40
2019-02-20T15:45:43.992Z,13.50
2019-02-20T15:48:12.753Z,13.50
2019-02-20T15:50:41.471Z,13.50
2019-02-20T15:53:10.146Z,13.40
2019-02-20T15:55:38.826Z,13.40
2019-02-20T15:58:07.535Z,13.30
2019-02-20T16:00:36.297Z,13.20
2019-02-20T16:03:05.092Z,13.20
2019-02-20T16:05:34.047Z,13.20
2019-02-20T16:08:02.656Z,13.10
2019-02-20T16:10:34.793Z,13.10
2019-02-20T16:13:03.801Z,13.00
2019-02-20T16:15:32.412Z,13.00
2019-02-20T16:18:01.014Z,13.00
2019-02-20T16:20:30.617Z,13.00
2019-02-20T16:23:00.319Z,12.90
2019-02-20T16:25:29.936Z,12.90
2019-02-20T16:27:58.735Z,12.90
2019-02-20T16:30:27.807Z,12.90
2019-02-20T16:32:57.400Z,12.80
2019-02-20T16:35:25.983Z,12.80
2019-02-20T16:37:55.699Z,12.70
2019-02-20T16:40:24.701Z,12.70
2019-02-20T16:42:53.889Z,12.60
2019-02-20T16:45:24.459Z,12.60
2019-02-20T16:47:53.646Z,12.50
2019-02-20T16:50:24.324Z,12.50
2019-02-20T16:52:52.927Z,12.50
2019-02-20T16:55:22.668Z,12.50
2019-02-20T16:57:56.851Z,12.40
2019-02-20T17:00:23.633Z,12.30
2019-02-20T17:02:53.032Z,12.20
2019-02-20T17:05:27.357Z,12.20
2019-02-20T17:07:55.890Z,12.10
2019-02-20T17:10:24.566Z,12.00
2019-02-20T17:12:53.008Z,12.00
2019-02-20T17:15:22.299Z,11.90
2019-02-20T17:18:00.837Z,11.80
2019-02-20T17:20:31.431Z,11.80
2019-02-20T17:23:00.423Z,11.70
2019-02-20T17:25:29.482Z,11.60
2019-02-20T17:28:05.551Z,11.50
2019-02-20T17:30:28.949Z,11.50
2019-02-20T17:32:57.505Z,11.40
2019-02-20T17:35:25.992Z,11.30
2019-02-20T17:37:54.521Z,11.20
2019-02-20T17:40:23.139Z,11.10
2019-02-20T17:42:52.267Z,11.00
2019-02-20T17:45:20.950Z,10.90
2019-02-20T17:47:49.399Z,10.80
2019-02-20T17:50:18.514Z,10.70
2019-02-20T17:52:47.129Z,10.60
2019-02-20T17:55:15.666Z,10.50
2019-02-20T17:57:46.880Z,10.40
2019-02-20T18:00:16.959Z,10.30
2019-02-20T18:02:46.506Z,10.20
2019-02-20T18:05:15.168Z,10.10
2019-02-20T18:07:49.888Z,10.00
2019-02-20T18:10:14.811Z,10.00
2019-02-20T18:12:43.739Z,9.90
2019-02-20T18:15:12.594Z,9.80
2019-02-20T18:17:41.240Z,9.70
2019-02-20T18:20:10.148Z,9.60
2019-02-20T18:22:39.039Z,9.50
2019-02-20T18:25:09.933Z,9.50
2019-02-20T18:27:38.570Z,9.40
2019-02-20T18:30:07.870Z,9.30
2019-02-20T18:32:37.009Z,9.20
2019-02-20T18:35:06.547Z,9.20
2019-02-20T18:37:35.228Z,9.10
2019-02-20T18:40:04.301Z,9.10
2019-02-20T18:42:32.699Z,9.00
2019-02-20T18:45:02.507Z,8.90
2019-02-20T18:47:32.719Z,8.80
2019-02-20T18:50:01.289Z,8.80
2019-02-20T18:52:29.755Z,8.70
2019-02-20T18:55:05.536Z,8.70
2019-02-20T18:57:29.580Z,8.60
2019-02-20T18:59:58.097Z,8.50
2019-02-20T19:02:26.870Z,8.40
2019-02-20T19:04:56.370Z,8.40
2019-02-20T19:07:24.853Z,8.30
2019-02-20T19:09:54.275Z,8.30
2019-02-20T19:13:02.416Z,8.20
2019-02-20T19:16:11.752Z,8.10
2019-02-20T19:19:09.902Z,8.10
2019-02-20T19:22:16.543Z,8.00
2019-02-20T19:25:23.074Z,7.90
2019-02-20T19:28:15.724Z,7.80
2019-02-20T19:31:27.980Z,7.80
2019-02-20T19:34:28.032Z,7.70
2019-02-20T19:37:29.064Z,7.60
2019-02-20T19:40:30.988Z,7.60
2019-02-20T19:43:32.445Z,7.50
2019-02-20T19:46:26.626Z,7.50
2019-02-20T19:49:36.388Z,7.40
2019-02-20T19:52:25.953Z,7.40
2019-02-20T19:55:33.073Z,7.30
2019-02-20T19:58:25.539Z,7.30
2019-02-20T20:01:31.031Z,7.20
2019-02-20T20:04:15.266Z,7.20
2019-02-20T20:07:29.605Z,7.10
2019-02-20T20:10:33.520Z,7.00
2019-02-20T20:13:27.958Z,7.00
2019-02-20T20:16:27.372Z,7.00
2019-02-20T20:19:49.190Z,6.90
2019-02-20T20:22:42.207Z,6.90
2019-02-20T20:25:24.541Z,6.90
2019-02-20T20:28:26.690Z,6.80
2019-02-20T20:31:24.665Z,6.80
2019-02-20T20:34:33.545Z,6.70
2019-02-20T20:37:52.165Z,6.60
2019-02-20T20:41:01.851Z,6.50
2019-02-20T20:44:04.296Z,6.50
2019-02-20T20:46:59.242Z,6.40
2019-02-20T20:50:22.433Z,6.40
2019-02-20T20:53:21.544Z,6.30
2019-02-20T20:56:57.644Z,6.30
2019-02-20T21:00:07.299Z,6.20
2019-02-20T21:02:50.758Z,6.20
2019-02-20T21:06:18.343Z,6.10
2019-02-20T21:09:33.805Z,6.10
2019-02-20T21:12:56.339Z,6.10
2019-02-20T21:15:55.714Z,6.00
2019-02-20T21:18:57.718Z,5.90
2019-02-20T21:21:40.406Z,5.90
2019-02-20T21:24:59.207Z,5.90
2019-02-20T21:27:58.493Z,5.80
2019-02-20T21:30:56.972Z,5.80
2019-02-20T21:34:09.062Z,5.80
2019-02-20T21:36:55.892Z,5.80
2019-02-20T21:39:40.506Z,5.90
2019-02-20T21:42:48.674Z,5.80
2019-02-20T21:45:58.354Z,5.90
2019-02-20T21:49:18.277Z,5.90
2019-02-20T21:52:25.040Z,5.90
2019-02-20T21:55:43.743Z,6.00
2019-02-20T21:58:53.981Z,6.00
2019-02-20T22:01:49.679Z,6.00
2019-02-20T22:04:52.753Z,6.10
2019-02-20T22:07:46.499Z,6.10
2019-02-20T22:11:14.088Z,6.10
2019-02-20T22:14:29.905Z,6.10
2019-02-20T22:17:48.745Z,6.20
2019-02-20T22:21:00.698Z,6.20
2019-02-20T22:23:49.184Z,6.20
2019-02-20T22:26:32.261Z,6.30
2019-02-20T22:29:53.057Z,6.30
2019-02-20T22:32:53.380Z,6.30
2019-02-20T22:35:51.938Z,6.40
2019-02-20T22:38:48.386Z,6.40
2019-02-20T22:41:40.912Z,6.50
2019-02-20T22:44:46.501Z,6.50
2019-02-20T22:47:55.080Z,6.50
2019-02-20T22:51:06.411Z,6.50
2019-02-20T22:54:12.126Z,6.50
2019-02-20T22:57:26.204Z,6.60
2019-02-20T23:00:34.966Z,6.60
2019-02-20T23:03:42.118Z,6.70
2019-02-20T23:06:54.380Z,6.70
2019-02-20T23:09:49.760Z,6.80
2019-02-20T23:12:52.190Z,6.80
2019-02-20T23:15:21.002Z,6.90
2019-02-20T23:17:49.758Z,6.90
2019-02-20T23:20:18.445Z,7.00
2019-02-20T23:22:46.878Z,7.00
2019-02-20T23:25:15.602Z,7.00
2019-02-20T23:27:44.312Z,7.00
2019-02-20T23:30:13.414Z,7.00
2019-02-20T23:32:43.302Z,7.10
2019-02-20T23:35:12.100Z,7.10
2019-02-20T23:37:40.901Z,7.10
2019-02-20T23:40:09.983Z,7.20
2019-02-20T23:42:38.659Z,7.20
2019-02-20T23:45:07.146Z,7.20
2019-02-20T23:47:36.027Z,7.20
2019-02-20T23:50:04.826Z,7.30
2019-02-20T23:52:33.665Z,7.30
2019-02-20T23:55:02.288Z,7.30
2019-02-20T23:57:31.272Z,7.40
2019-02-20T23:59:59.711Z,7.40
